Virtual Washington ARTCC

Weather

KBWI 230454Z 23004KT 10SM BKN080 BKN140 09/04 A3014 RMK AO2 SLP205 T00890044 401390000
KDCA 230452Z 19006KT 10SM FEW065 BKN130 BKN250 11/06 A3015 RMK AO2 SLP211 T01060056 401440033
KIAD 230452Z 16003KT 10SM SCT095 BKN180 BKN250 07/04 A3014 RMK AO2 SLP205 T00720044 401331017
KORF 230451Z 20007KT 10SM CLR 07/04 A3022 RMK AO2 SLP234 T00720039 401610072
KRDU 230451Z 24005KT 10SM BKN210 OVC250 07/06 A3023 RMK AO2 SLP235 T00720056 401670011

TOP FIVE CONTROLLERS


Stats for 2018-10-01 to 2018-10-31
#Name:Hours:
1Tim Evans46.05
2Jared West32.94
3Lewis Gilkes20.58
4Aminu Alibe13.98
5Chris Priest12.38
Stats for 2018-9-01 to 2018-9-31
#Name:Hours:
1Tim Evans40.62
2Jared West38.54
3Robert Shearman Jr26.17
4Jaden Herman18.60
5Brandon Shaw16.80

Events



ZDC Activity

No controllers online.

News



The information contained on all pages of this website is to be used for flight simulation purposes only on the VATSIM network. It is not intended nor should it be used for real world navigation.This site is not affiliated with the FAA, the actual Washington Center or any governing aviation body. All content contained herein is approved only for use on the VATSIM network. ©2016 Virtual Washington ARTCC -- Source Code © 2016-2017 W. Guisbond and R. Rump.
By using this website you agree to all VATSIM Privacy Regulations as can be found on https://www.vatsim.net/documents/privacy-policy. This website uses cookie$